createdAt,value
2018-03-16T00:00:16.862Z,87.0
2018-03-16T00:01:16.704Z,87.0
2018-03-16T00:02:16.964Z,87.0
2018-03-16T00:03:17.229Z,87.0
2018-03-16T00:04:16.508Z,87.0
2018-03-16T00:05:16.788Z,87.0
2018-03-16T00:06:17.055Z,87.0
2018-03-16T00:07:16.322Z,87.0
2018-03-16T00:08:16.586Z,88.0
2018-03-16T00:09:16.851Z,88.0
2018-03-16T00:10:17.142Z,88.0
2018-03-16T00:11:17.167Z,88.0
2018-03-16T00:12:16.438Z,88.0
2018-03-16T00:13:16.704Z,88.0
2018-03-16T00:14:16.981Z,88.0
2018-03-16T00:15:17.245Z,88.0
2018-03-16T00:16:16.518Z,88.0
2018-03-16T00:17:16.793Z,88.0
2018-03-16T00:18:17.255Z,88.0
2018-03-16T00:19:16.521Z,88.0
2018-03-16T00:20:16.794Z,88.0
2018-03-16T00:21:16.832Z,88.0
2018-03-16T00:22:17.098Z,88.0
2018-03-16T00:23:16.383Z,88.0
2018-03-16T00:24:16.660Z,88.0
2018-03-16T00:25:16.938Z,88.0
2018-03-16T00:26:17.225Z,88.0
2018-03-16T00:27:16.489Z,88.0
2018-03-16T00:28:16.759Z,88.0
2018-03-16T00:29:17.041Z,88.0
2018-03-16T00:30:16.312Z,89.0
2018-03-16T00:31:16.345Z,89.0
2018-03-16T00:32:16.620Z,89.0
2018-03-16T00:33:16.892Z,89.0
2018-03-16T00:34:17.169Z,89.0
2018-03-16T00:35:16.447Z,89.0
2018-03-16T00:36:16.721Z,89.0
2018-03-16T00:37:16.996Z,89.0
2018-03-16T00:38:16.267Z,89.0
2018-03-16T00:39:16.537Z,89.0
2018-03-16T00:40:16.813Z,89.0
2018-03-16T00:41:16.862Z,89.0
2018-03-16T00:42:17.393Z,89.0
2018-03-16T00:43:16.666Z,89.0
2018-03-16T00:44:16.938Z,89.0
2018-03-16T00:45:17.207Z,89.0
2018-03-16T00:46:16.464Z,89.0
2018-03-16T00:47:16.735Z,89.0
2018-03-16T00:48:17.013Z,89.0
2018-03-16T00:49:16.284Z,89.0
2018-03-16T00:50:16.560Z,90.0
2018-03-16T00:51:16.601Z,90.0
2018-03-16T00:52:16.923Z,90.0
2018-03-16T00:53:17.192Z,90.0
2018-03-16T00:54:16.469Z,90.0
2018-03-16T00:55:16.743Z,90.0
2018-03-16T00:56:17.016Z,90.0
2018-03-16T00:57:16.281Z,90.0
2018-03-16T00:58:16.544Z,90.0
2018-03-16T00:59:16.819Z,90.0
2018-03-16T01:00:17.105Z,90.0
2018-03-16T01:01:17.160Z,90.0
2018-03-16T01:02:16.437Z,90.0
2018-03-16T01:03:16.713Z,90.0
2018-03-16T01:04:16.989Z,90.0
2018-03-16T01:05:17.252Z,90.0
2018-03-16T01:06:16.522Z,90.0
2018-03-16T01:07:16.796Z,90.0
2018-03-16T01:08:17.072Z,90.0
2018-03-16T01:09:16.336Z,90.0
2018-03-16T01:10:16.613Z,90.0
2018-03-16T01:11:16.692Z,90.0
2018-03-16T01:12:16.965Z,90.0
2018-03-16T01:13:17.232Z,90.0
2018-03-16T01:14:16.500Z,90.0
2018-03-16T01:15:16.770Z,90.0
2018-03-16T01:16:17.040Z,90.0
2018-03-16T01:17:16.308Z,91.0
2018-03-16T01:18:16.723Z,90.0
2018-03-16T01:19:16.982Z,91.0
2018-03-16T01:20:17.253Z,91.0
2018-03-16T01:21:16.303Z,91.0
2018-03-16T01:22:16.579Z,91.0
2018-03-16T01:23:16.843Z,91.0
2018-03-16T01:24:17.111Z,91.0
2018-03-16T01:25:16.377Z,91.0
2018-03-16T01:26:16.650Z,91.0
2018-03-16T01:27:16.915Z,91.0
2018-03-16T01:28:17.194Z,91.0
2018-03-16T01:29:16.466Z,91.0
2018-03-16T01:30:16.741Z,91.0
2018-03-16T01:31:16.788Z,91.0
2018-03-16T01:32:17.062Z,91.0
2018-03-16T01:33:16.332Z,91.0
2018-03-16T01:34:16.613Z,91.0
2018-03-16T01:35:16.889Z,91.0
2018-03-16T01:36:17.154Z,91.0
2018-03-16T01:37:16.421Z,91.0
2018-03-16T01:38:16.702Z,91.0
2018-03-16T01:39:16.979Z,91.0
2018-03-16T01:40:17.263Z,91.0
2018-03-16T01:41:16.302Z,91.0
2018-03-16T01:42:16.586Z,91.0
2018-03-16T01:43:17.295Z,91.0
2018-03-16T01:44:16.568Z,91.0
2018-03-16T01:45:16.845Z,91.0
2018-03-16T01:46:17.112Z,91.0
2018-03-16T01:47:16.381Z,91.0
2018-03-16T01:48:16.638Z,91.0
2018-03-16T01:49:16.915Z,91.0
2018-03-16T01:50:17.203Z,91.0
2018-03-16T01:51:17.235Z,91.0
2018-03-16T01:52:16.496Z,91.0
2018-03-16T01:53:16.985Z,91.0
2018-03-16T01:54:16.256Z,91.0
2018-03-16T01:55:16.527Z,91.0
2018-03-16T01:56:16.801Z,92.0
2018-03-16T01:57:17.072Z,92.0
2018-03-16T01:58:16.349Z,92.0
2018-03-16T01:59:16.625Z,92.0
2018-03-16T02:00:16.907Z,92.0
2018-03-16T02:01:16.954Z,92.0
2018-03-16T02:02:16.271Z,92.0
2018-03-16T02:03:16.545Z,92.0
2018-03-16T02:04:16.812Z,92.0
2018-03-16T02:05:17.084Z,92.0
2018-03-16T02:06:16.355Z,92.0
2018-03-16T02:07:16.623Z,92.0
2018-03-16T02:08:16.890Z,92.0
2018-03-16T02:09:17.157Z,92.0
2018-03-16T02:10:16.431Z,92.0
2018-03-16T02:11:16.457Z,92.0
2018-03-16T02:12:16.730Z,92.0
2018-03-16T02:13:17.004Z,92.0
2018-03-16T02:14:16.284Z,92.0
2018-03-16T02:15:16.553Z,92.0
2018-03-16T02:16:16.817Z,92.0
2018-03-16T02:17:17.098Z,92.0
2018-03-16T02:18:16.364Z,92.0
2018-03-16T02:19:16.634Z,92.0
2018-03-16T02:20:16.910Z,92.0
2018-03-16T02:21:16.945Z,92.0
2018-03-16T02:22:17.219Z,92.0
2018-03-16T02:23:16.493Z,92.0
2018-03-16T02:24:16.763Z,92.0
2018-03-16T02:25:17.027Z,92.0
2018-03-16T02:26:16.296Z,92.0
2018-03-16T02:27:16.565Z,92.0
2018-03-16T02:28:16.843Z,92.0
2018-03-16T02:29:17.112Z,92.0
2018-03-16T02:30:16.395Z,92.0
2018-03-16T02:31:16.434Z,92.0
2018-03-16T02:32:16.712Z,92.0
2018-03-16T02:33:16.994Z,92.0
2018-03-16T02:34:16.265Z,92.0
2018-03-16T02:35:16.550Z,92.0
2018-03-16T02:36:16.831Z,92.0
2018-03-16T02:37:17.117Z,92.0
2018-03-16T02:38:16.381Z,92.0
2018-03-16T02:39:16.667Z,92.0
2018-03-16T02:40:16.941Z,92.0
2018-03-16T02:41:16.985Z,92.0
2018-03-16T02:42:17.253Z,92.0
2018-03-16T02:43:16.521Z,92.0
2018-03-16T02:44:16.810Z,92.0
2018-03-16T02:45:17.079Z,93.0
2018-03-16T02:46:16.349Z,92.0
2018-03-16T02:47:16.629Z,93.0
2018-03-16T02:48:16.897Z,93.0
2018-03-16T02:49:17.508Z,93.0
2018-03-16T02:50:16.791Z,93.0
2018-03-16T02:51:16.830Z,93.0
2018-03-16T02:52:17.095Z,93.0
2018-03-16T02:53:16.374Z,93.0
2018-03-16T02:54:16.655Z,93.0
2018-03-16T02:55:16.938Z,93.0
2018-03-16T02:56:17.216Z,93.0
2018-03-16T02:57:16.488Z,93.0
2018-03-16T02:58:16.775Z,93.0
2018-03-16T02:59:17.045Z,93.0
2018-03-16T03:00:16.342Z,93.0
2018-03-16T03:01:16.365Z,93.0
2018-03-16T03:02:16.654Z,93.0
2018-03-16T03:03:16.931Z,93.0
2018-03-16T03:04:17.189Z,93.0
2018-03-16T03:05:16.454Z,93.0
2018-03-16T03:06:16.736Z,93.0
2018-03-16T03:07:17.002Z,93.0
2018-03-16T03:08:16.269Z,93.0
2018-03-16T03:09:16.541Z,93.0
2018-03-16T03:10:16.820Z,93.0
2018-03-16T03:11:16.867Z,93.0
2018-03-16T03:12:17.134Z,93.0
2018-03-16T03:13:16.400Z,93.0
2018-03-16T03:14:16.668Z,93.0
2018-03-16T03:15:16.935Z,93.0
2018-03-16T03:16:17.202Z,93.0
2018-03-16T03:17:16.471Z,93.0
2018-03-16T03:18:16.739Z,93.0
2018-03-16T03:19:17.018Z,93.0
2018-03-16T03:20:16.298Z,93.0
2018-03-16T03:21:16.328Z,93.0
2018-03-16T03:22:16.596Z,93.0
2018-03-16T03:23:16.866Z,93.0
2018-03-16T03:24:17.135Z,93.0
2018-03-16T03:25:16.408Z,93.0
2018-03-16T03:26:16.676Z,93.0
2018-03-16T03:27:16.951Z,93.0
2018-03-16T03:28:17.228Z,93.0
2018-03-16T03:29:16.500Z,93.0
2018-03-16T03:30:16.775Z,93.0
2018-03-16T03:31:16.796Z,93.0
2018-03-16T03:32:17.084Z,93.0
2018-03-16T03:33:16.349Z,93.0
2018-03-16T03:34:16.664Z,93.0
2018-03-16T03:35:16.934Z,94.0
2018-03-16T03:36:17.200Z,94.0
2018-03-16T03:37:16.474Z,94.0
2018-03-16T03:38:16.747Z,94.0
2018-03-16T03:39:17.022Z,94.0
2018-03-16T03:40:16.304Z,94.0
2018-03-16T03:41:16.512Z,94.0
2018-03-16T03:42:16.786Z,94.0
2018-03-16T03:43:17.060Z,94.0
2018-03-16T03:44:17.019Z,94.0
2018-03-16T03:45:16.289Z,94.0
2018-03-16T03:46:16.558Z,94.0
2018-03-16T03:47:16.827Z,94.0
2018-03-16T03:48:17.100Z,94.0
2018-03-16T03:49:16.365Z,94.0
2018-03-16T03:50:16.646Z,94.0
2018-03-16T03:51:16.677Z,94.0
2018-03-16T03:52:16.960Z,94.0
2018-03-16T03:53:17.225Z,94.0
2018-03-16T03:54:16.483Z,94.0
2018-03-16T03:55:16.753Z,94.0
2018-03-16T03:56:17.017Z,94.0
2018-03-16T03:57:16.287Z,94.0
2018-03-16T03:58:16.572Z,94.0
2018-03-16T03:59:16.844Z,94.0
2018-03-16T04:00:17.134Z,94.0
2018-03-16T04:01:17.160Z,94.0
2018-03-16T04:02:16.427Z,94.0
2018-03-16T04:03:16.713Z,94.0
2018-03-16T04:04:16.975Z,94.0
2018-03-16T04:05:17.248Z,94.0
2018-03-16T04:06:16.515Z,94.0
2018-03-16T04:07:16.794Z,94.0
2018-03-16T04:08:17.062Z,94.0
2018-03-16T04:09:16.351Z,94.0
2018-03-16T04:10:16.642Z,94.0
2018-03-16T04:11:16.664Z,94.0
2018-03-16T04:12:16.936Z,94.0
2018-03-16T04:13:17.397Z,94.0
2018-03-16T04:14:16.674Z,94.0
2018-03-16T04:15:16.961Z,94.0
2018-03-16T04:16:17.233Z,94.0
2018-03-16T04:17:16.497Z,94.0
2018-03-16T04:18:16.798Z,94.0
2018-03-16T04:19:17.148Z,94.0
2018-03-16T04:20:16.418Z,94.0
2018-03-16T04:21:16.492Z,94.0
2018-03-16T04:22:16.771Z,94.0
2018-03-16T04:23:17.042Z,94.0
2018-03-16T04:24:16.344Z,94.0
2018-03-16T04:25:16.620Z,94.0
2018-03-16T04:26:16.888Z,94.0
2018-03-16T04:27:17.169Z,94.0
2018-03-16T04:28:16.437Z,94.0
2018-03-16T04:29:16.723Z,94.0
2018-03-16T04:30:17.002Z,94.0
2018-03-16T04:31:17.038Z,94.0
2018-03-16T04:32:16.307Z,94.0
2018-03-16T04:33:16.578Z,94.0
2018-03-16T04:34:16.851Z,94.0
2018-03-16T04:35:17.115Z,94.0
2018-03-16T04:36:16.375Z,94.0
2018-03-16T04:37:16.642Z,94.0
2018-03-16T04:38:16.919Z,94.0
2018-03-16T04:39:17.192Z,94.0
2018-03-16T04:40:16.476Z,94.0
2018-03-16T04:41:16.511Z,94.0
2018-03-16T04:42:16.784Z,94.0
2018-03-16T04:43:17.057Z,94.0
2018-03-16T04:44:16.328Z,94.0
2018-03-16T04:45:16.608Z,94.0
2018-03-16T04:46:16.876Z,94.0
2018-03-16T04:47:17.421Z,94.0
2018-03-16T04:48:16.692Z,94.0
2018-03-16T04:49:16.956Z,94.0
2018-03-16T04:50:17.234Z,94.0
2018-03-16T04:51:16.271Z,94.0
2018-03-16T04:52:16.554Z,94.0
2018-03-16T04:53:16.826Z,94.0
2018-03-16T04:54:17.099Z,94.0
2018-03-16T04:55:16.386Z,94.0
2018-03-16T04:56:16.659Z,94.0
2018-03-16T04:57:16.929Z,94.0
2018-03-16T04:58:17.199Z,94.0
2018-03-16T04:59:16.465Z,94.0
2018-03-16T05:00:16.757Z,94.0
2018-03-16T05:01:16.788Z,94.0
2018-03-16T05:02:17.057Z,94.0
2018-03-16T05:03:16.422Z,94.0
2018-03-16T05:04:16.703Z,94.0
2018-03-16T05:05:16.968Z,94.0
2018-03-16T05:06:17.232Z,94.0
2018-03-16T05:07:16.502Z,94.0
2018-03-16T05:08:16.776Z,94.0
2018-03-16T05:09:17.058Z,94.0
2018-03-16T05:10:16.341Z,94.0
2018-03-16T05:11:16.371Z,94.0
2018-03-16T05:12:16.949Z,94.0
2018-03-16T05:13:17.214Z,94.0
2018-03-16T05:14:16.485Z,94.0
2018-03-16T05:15:16.757Z,94.0
2018-03-16T05:16:17.042Z,94.0
2018-03-16T05:17:16.304Z,94.0
2018-03-16T05:18:16.572Z,94.0
2018-03-16T05:19:16.844Z,94.0
2018-03-16T05:20:17.129Z,94.0
2018-03-16T05:21:17.166Z,94.0
2018-03-16T05:22:16.446Z,94.0
2018-03-16T05:23:16.721Z,94.0
2018-03-16T05:24:16.988Z,94.0
2018-03-16T05:25:17.264Z,94.0
2018-03-16T05:26:16.541Z,94.0
2018-03-16T05:27:16.809Z,94.0
2018-03-16T05:28:17.073Z,94.0
2018-03-16T05:29:16.344Z,94.0
2018-03-16T05:30:16.627Z,94.0
2018-03-16T05:31:16.672Z,94.0
2018-03-16T05:32:16.941Z,94.0
2018-03-16T05:33:17.214Z,95.0
2018-03-16T05:34:16.484Z,94.0
2018-03-16T05:35:16.774Z,94.0
2018-03-16T05:36:17.046Z,94.0
2018-03-16T05:37:16.318Z,94.0
2018-03-16T05:38:16.591Z,94.0
2018-03-16T05:39:16.867Z,94.0
2018-03-16T05:40:17.145Z,94.0
2018-03-16T05:41:17.194Z,94.0
2018-03-16T05:42:16.468Z,94.0
2018-03-16T05:43:16.735Z,94.0
2018-03-16T05:44:17.007Z,94.0
2018-03-16T05:45:16.278Z,94.0
2018-03-16T05:46:16.556Z,94.0
2018-03-16T05:47:16.817Z,94.0
2018-03-16T05:48:17.493Z,94.0
2018-03-16T05:49:16.769Z,94.0
2018-03-16T05:50:17.053Z,94.0
2018-03-16T05:51:17.081Z,95.0
2018-03-16T05:52:16.354Z,94.0
2018-03-16T05:53:16.620Z,95.0
2018-03-16T05:54:16.896Z,95.0
2018-03-16T05:55:17.160Z,95.0
2018-03-16T05:56:16.422Z,95.0
2018-03-16T05:57:16.702Z,95.0
2018-03-16T05:58:16.969Z,95.0
2018-03-16T05:59:17.237Z,95.0
2018-03-16T06:00:16.517Z,94.0
2018-03-16T06:01:16.557Z,94.0
2018-03-16T06:02:16.824Z,94.0
2018-03-16T06:03:17.099Z,94.0
2018-03-16T06:04:16.371Z,94.0
2018-03-16T06:05:16.694Z,94.0
2018-03-16T06:06:16.952Z,94.0
2018-03-16T06:07:17.220Z,94.0
2018-03-16T06:08:16.489Z,94.0
2018-03-16T06:09:16.751Z,94.0
2018-03-16T06:10:17.030Z,94.0
2018-03-16T06:11:17.086Z,94.0
2018-03-16T06:12:16.354Z,94.0
2018-03-16T06:13:16.616Z,94.0
2018-03-16T06:14:16.883Z,94.0
2018-03-16T06:15:17.157Z,94.0
2018-03-16T06:16:16.438Z,94.0
2018-03-16T06:17:16.704Z,94.0
2018-03-16T06:18:16.974Z,94.0
2018-03-16T06:19:17.245Z,94.0
2018-03-16T06:20:16.525Z,94.0
2018-03-16T06:21:16.572Z,94.0
2018-03-16T06:22:16.842Z,94.0
2018-03-16T06:23:17.511Z,94.0
2018-03-16T06:24:16.786Z,94.0
2018-03-16T06:25:17.053Z,94.0
2018-03-16T06:26:16.319Z,94.0
2018-03-16T06:27:16.593Z,94.0
2018-03-16T06:28:16.860Z,94.0
2018-03-16T06:29:17.143Z,94.0
2018-03-16T06:30:16.429Z,94.0
2018-03-16T06:31:16.459Z,94.0
2018-03-16T06:32:16.768Z,94.0
2018-03-16T06:33:17.031Z,94.0
2018-03-16T06:34:16.299Z,94.0
2018-03-16T06:35:16.580Z,94.0
2018-03-16T06:36:16.866Z,94.0
2018-03-16T06:37:17.148Z,94.0
2018-03-16T06:38:16.410Z,94.0
2018-03-16T06:39:16.710Z,94.0
2018-03-16T06:40:16.994Z,94.0
2018-03-16T06:41:17.023Z,94.0
2018-03-16T06:42:16.294Z,94.0
2018-03-16T06:43:16.638Z,94.0
2018-03-16T06:44:16.912Z,94.0
2018-03-16T06:45:17.181Z,94.0
2018-03-16T06:46:16.447Z,94.0
2018-03-16T06:47:16.716Z,94.0
2018-03-16T06:48:16.983Z,94.0
2018-03-16T06:49:17.261Z,94.0
2018-03-16T06:50:16.529Z,94.0
2018-03-16T06:51:16.579Z,94.0
2018-03-16T06:52:16.842Z,94.0
2018-03-16T06:53:17.113Z,94.0
2018-03-16T06:54:16.391Z,94.0
2018-03-16T06:55:16.672Z,94.0
2018-03-16T06:56:16.951Z,94.0
2018-03-16T06:57:17.241Z,94.0
2018-03-16T06:58:16.512Z,94.0
2018-03-16T06:59:16.788Z,94.0
2018-03-16T07:00:17.061Z,94.0
2018-03-16T07:01:17.095Z,94.0
2018-03-16T07:02:16.368Z,94.0
2018-03-16T07:03:16.714Z,94.0
2018-03-16T07:04:16.988Z,94.0
2018-03-16T07:05:16.274Z,94.0
2018-03-16T07:06:16.553Z,94.0
2018-03-16T07:07:16.827Z,94.0
2018-03-16T07:08:17.099Z,94.0
2018-03-16T07:09:16.372Z,94.0
2018-03-16T07:10:16.648Z,94.0
2018-03-16T07:11:16.701Z,94.0
2018-03-16T07:12:16.966Z,94.0
2018-03-16T07:13:17.248Z,94.0
2018-03-16T07:14:16.521Z,94.0
2018-03-16T07:15:16.805Z,93.0
2018-03-16T07:16:17.089Z,93.0
2018-03-16T07:17:16.361Z,93.0
2018-03-16T07:18:16.629Z,94.0
2018-03-16T07:19:16.892Z,93.0
2018-03-16T07:20:17.165Z,93.0
2018-03-16T07:21:17.212Z,93.0
2018-03-16T07:22:16.483Z,93.0
2018-03-16T07:23:16.839Z,93.0
2018-03-16T07:24:17.120Z,93.0
2018-03-16T07:25:16.388Z,93.0
2018-03-16T07:26:16.660Z,93.0
2018-03-16T07:27:16.929Z,93.0
2018-03-16T07:28:17.207Z,93.0
2018-03-16T07:29:16.480Z,93.0
2018-03-16T07:30:16.753Z,93.0
2018-03-16T07:31:16.801Z,93.0
2018-03-16T07:32:17.078Z,93.0
2018-03-16T07:33:16.346Z,93.0
2018-03-16T07:34:16.624Z,93.0
2018-03-16T07:35:16.903Z,93.0
2018-03-16T07:36:17.199Z,93.0
2018-03-16T07:37:16.475Z,93.0
2018-03-16T07:38:16.741Z,93.0
2018-03-16T07:39:17.001Z,93.0
2018-03-16T07:40:16.284Z,93.0
2018-03-16T07:41:16.390Z,93.0
2018-03-16T07:42:16.721Z,93.0
2018-03-16T07:43:16.986Z,92.0
2018-03-16T07:44:17.253Z,92.0
2018-03-16T07:45:16.533Z,92.0
2018-03-16T07:46:16.800Z,92.0
2018-03-16T07:47:17.084Z,92.0
2018-03-16T07:48:16.417Z,92.0
2018-03-16T07:49:16.702Z,92.0
2018-03-16T07:50:16.965Z,92.0
2018-03-16T07:51:17.025Z,92.0
2018-03-16T07:52:16.290Z,92.0
2018-03-16T07:53:16.558Z,92.0
2018-03-16T07:54:16.827Z,92.0
2018-03-16T07:55:17.107Z,91.0
2018-03-16T07:56:16.373Z,91.0
2018-03-16T07:57:16.644Z,91.0
2018-03-16T07:58:16.912Z,91.0
2018-03-16T07:59:17.183Z,91.0
2018-03-16T08:00:16.462Z,91.0
2018-03-16T08:01:16.501Z,91.0
2018-03-16T08:02:16.774Z,91.0
2018-03-16T08:03:17.039Z,91.0
2018-03-16T08:04:16.308Z,91.0
2018-03-16T08:05:16.568Z,90.0
2018-03-16T08:06:16.856Z,90.0
2018-03-16T08:07:17.144Z,90.0
2018-03-16T08:08:16.422Z,90.0
2018-03-16T08:09:16.699Z,90.0
2018-03-16T08:10:16.962Z,90.0
2018-03-16T08:11:17.007Z,89.0
2018-03-16T08:12:16.273Z,89.0
2018-03-16T08:13:16.566Z,89.0
2018-03-16T08:14:16.837Z,89.0
2018-03-16T08:15:17.343Z,89.0
2018-03-16T08:16:16.675Z,88.0
2018-03-16T08:17:16.952Z,88.0
2018-03-16T08:18:17.224Z,88.0
2018-03-16T08:19:16.494Z,88.0
2018-03-16T08:20:16.785Z,87.0
2018-03-16T08:21:16.806Z,87.0
2018-03-16T08:22:17.081Z,87.0
2018-03-16T08:23:16.354Z,86.0
2018-03-16T08:24:16.633Z,86.0
2018-03-16T08:25:16.901Z,85.0
2018-03-16T08:26:17.171Z,85.0
2018-03-16T08:27:16.440Z,84.0
2018-03-16T08:28:16.806Z,84.0
2018-03-16T08:29:17.084Z,83.0
2018-03-16T08:30:16.393Z,82.0
2018-03-16T08:31:16.406Z,82.0
2018-03-16T08:32:16.674Z,81.0
2018-03-16T08:33:16.937Z,81.0
2018-03-16T08:34:17.215Z,80.0
2018-03-16T08:35:16.487Z,80.0
2018-03-16T08:36:16.757Z,79.0
2018-03-16T08:37:17.045Z,79.0
2018-03-16T08:38:16.313Z,79.0
2018-03-16T08:39:16.579Z,79.0
2018-03-16T08:40:16.861Z,78.0
2018-03-16T08:41:16.903Z,78.0
2018-03-16T08:42:17.191Z,78.0
2018-03-16T08:43:16.461Z,78.0
2018-03-16T08:44:16.738Z,78.0
2018-03-16T08:45:17.019Z,77.0
2018-03-16T08:46:16.285Z,77.0
2018-03-16T08:47:16.558Z,77.0
2018-03-16T08:48:16.831Z,77.0
2018-03-16T08:49:17.112Z,77.0
2018-03-16T08:50:16.393Z,77.0
2018-03-16T08:51:16.737Z,77.0
2018-03-16T08:52:17.011Z,77.0
2018-03-16T08:53:16.279Z,77.0
2018-03-16T08:54:16.543Z,76.0
2018-03-16T08:55:16.808Z,76.0
2018-03-16T08:56:17.084Z,76.0
2018-03-16T08:57:16.367Z,76.0
2018-03-16T08:58:16.629Z,76.0
2018-03-16T08:59:16.899Z,76.0
2018-03-16T09:00:17.184Z,76.0
2018-03-16T09:01:17.213Z,76.0
2018-03-16T09:02:16.476Z,76.0
2018-03-16T09:03:16.744Z,76.0
2018-03-16T09:04:17.010Z,76.0
2018-03-16T09:05:16.283Z,76.0
2018-03-16T09:06:16.553Z,76.0
2018-03-16T09:07:16.823Z,76.0
2018-03-16T09:08:17.089Z,76.0
2018-03-16T09:09:16.371Z,76.0
2018-03-16T09:10:16.645Z,76.0
2018-03-16T09:11:16.696Z,76.0
2018-03-16T09:12:16.967Z,76.0
2018-03-16T09:13:17.229Z,76.0
2018-03-16T09:14:16.497Z,76.0
2018-03-16T09:15:16.776Z,76.0
2018-03-16T09:16:17.039Z,76.0
2018-03-16T09:17:16.312Z,76.0
2018-03-16T09:18:16.581Z,76.0
2018-03-16T09:19:16.852Z,76.0
2018-03-16T09:20:17.129Z,75.0
2018-03-16T09:21:17.166Z,75.0
2018-03-16T09:22:16.440Z,75.0
2018-03-16T09:23:16.715Z,75.0
2018-03-16T09:24:16.982Z,75.0
2018-03-16T09:25:17.248Z,75.0
2018-03-16T09:26:16.514Z,75.0
2018-03-16T09:27:16.786Z,74.0
2018-03-16T09:28:17.054Z,74.0
2018-03-16T09:29:16.332Z,73.0
2018-03-16T09:30:16.629Z,73.0
2018-03-16T09:31:16.664Z,73.0
2018-03-16T09:32:16.943Z,72.0
2018-03-16T09:33:17.227Z,72.0
2018-03-16T09:34:16.494Z,71.0
2018-03-16T09:35:16.770Z,71.0
2018-03-16T09:36:17.051Z,71.0
2018-03-16T09:37:16.322Z,71.0
2018-03-16T09:38:16.602Z,70.0
2018-03-16T09:39:16.877Z,70.0
2018-03-16T09:40:17.178Z,70.0
2018-03-16T09:41:17.225Z,70.0
2018-03-16T09:42:16.544Z,70.0
2018-03-16T09:43:16.811Z,70.0
2018-03-16T09:44:17.079Z,70.0
2018-03-16T09:45:16.368Z,70.0
2018-03-16T09:46:16.640Z,70.0
2018-03-16T09:47:16.913Z,70.0
2018-03-16T09:48:17.181Z,70.0
2018-03-16T09:49:16.459Z,70.0
2018-03-16T09:50:16.731Z,69.0
2018-03-16T09:51:16.781Z,70.0
2018-03-16T09:52:17.048Z,69.0
2018-03-16T09:53:16.325Z,69.0
2018-03-16T09:54:16.606Z,69.0
2018-03-16T09:55:16.880Z,69.0
2018-03-16T09:56:17.249Z,69.0
2018-03-16T09:57:16.531Z,69.0
2018-03-16T09:58:16.800Z,69.0
2018-03-16T09:59:17.070Z,69.0
2018-03-16T10:00:16.361Z,70.0
2018-03-16T10:01:16.397Z,70.0
2018-03-16T10:02:16.665Z,70.0
2018-03-16T10:03:16.923Z,70.0
2018-03-16T10:04:17.197Z,70.0
2018-03-16T10:05:16.466Z,70.0
2018-03-16T10:06:16.736Z,70.0
2018-03-16T10:07:17.000Z,70.0
2018-03-16T10:08:16.270Z,70.0
2018-03-16T10:09:16.537Z,69.0
2018-03-16T10:10:16.828Z,69.0
2018-03-16T10:11:16.917Z,69.0
2018-03-16T10:12:17.197Z,69.0
2018-03-16T10:13:16.473Z,69.0
2018-03-16T10:14:16.747Z,69.0
2018-03-16T10:15:17.022Z,69.0
2018-03-16T10:16:16.305Z,69.0
2018-03-16T10:17:16.570Z,69.0
2018-03-16T10:18:16.842Z,69.0
2018-03-16T10:19:17.118Z,69.0
2018-03-16T10:20:16.399Z,70.0
2018-03-16T10:21:16.442Z,70.0
2018-03-16T10:22:16.713Z,70.0
2018-03-16T10:23:16.975Z,70.0
2018-03-16T10:24:17.243Z,71.0
2018-03-16T10:25:16.507Z,71.0
2018-03-16T10:26:16.770Z,71.0
2018-03-16T10:27:17.037Z,72.0
2018-03-16T10:28:16.311Z,72.0
2018-03-16T10:29:16.589Z,73.0
2018-03-16T10:30:16.872Z,73.0
2018-03-16T10:31:16.905Z,73.0
2018-03-16T10:32:17.176Z,74.0
2018-03-16T10:33:16.448Z,74.0
2018-03-16T10:34:16.721Z,74.0
2018-03-16T10:35:16.999Z,75.0
2018-03-16T10:36:16.288Z,75.0
2018-03-16T10:37:16.560Z,75.0
2018-03-16T10:38:16.840Z,76.0
2018-03-16T10:39:17.120Z,76.0
2018-03-16T10:40:16.394Z,76.0
2018-03-16T10:41:16.441Z,76.0
2018-03-16T10:42:16.702Z,76.0
2018-03-16T10:43:16.973Z,77.0
2018-03-16T10:44:17.239Z,77.0
2018-03-16T10:45:16.512Z,77.0
2018-03-16T10:46:16.795Z,77.0
2018-03-16T10:47:17.079Z,77.0
2018-03-16T10:48:16.349Z,78.0
2018-03-16T10:49:16.629Z,78.0
2018-03-16T10:50:16.911Z,78.0
2018-03-16T10:51:16.961Z,78.0
2018-03-16T10:52:17.229Z,79.0
2018-03-16T10:53:16.497Z,79.0
2018-03-16T10:54:16.805Z,79.0
2018-03-16T10:55:17.083Z,79.0
2018-03-16T10:56:16.360Z,79.0
2018-03-16T10:57:16.620Z,79.0
2018-03-16T10:58:16.890Z,78.0
2018-03-16T10:59:17.163Z,78.0
2018-03-16T11:00:16.438Z,78.0
2018-03-16T11:01:16.481Z,78.0
2018-03-16T11:02:16.753Z,77.0
2018-03-16T11:03:17.023Z,77.0
2018-03-16T11:04:16.289Z,77.0
2018-03-16T11:05:16.566Z,77.0
2018-03-16T11:06:16.833Z,76.0
2018-03-16T11:07:17.109Z,76.0
2018-03-16T11:08:16.388Z,75.0
2018-03-16T11:09:16.676Z,75.0
2018-03-16T11:10:16.951Z,74.0
2018-03-16T11:11:16.982Z,74.0
2018-03-16T11:12:17.245Z,73.0
2018-03-16T11:13:16.519Z,73.0
2018-03-16T11:14:16.781Z,73.0
2018-03-16T11:15:17.053Z,73.0
2018-03-16T11:16:16.327Z,72.0
2018-03-16T11:17:16.689Z,71.0
2018-03-16T11:18:16.973Z,71.0
2018-03-16T11:19:17.244Z,70.0
2018-03-16T11:20:16.524Z,70.0
2018-03-16T11:21:16.555Z,70.0
2018-03-16T11:22:16.825Z,69.0
2018-03-16T11:23:17.096Z,69.0
2018-03-16T11:24:16.355Z,68.0
2018-03-16T11:25:16.630Z,68.0
2018-03-16T11:26:16.905Z,67.0
2018-03-16T11:27:17.184Z,67.0
2018-03-16T11:28:16.449Z,67.0
2018-03-16T11:29:16.722Z,66.0
2018-03-16T11:30:17.011Z,67.0
2018-03-16T11:31:17.056Z,67.0
2018-03-16T11:32:16.325Z,67.0
2018-03-16T11:33:16.600Z,67.0
2018-03-16T11:34:16.877Z,67.0
2018-03-16T11:35:17.140Z,67.0
2018-03-16T11:36:16.406Z,68.0
2018-03-16T11:37:16.702Z,68.0
2018-03-16T11:38:16.982Z,68.0
2018-03-16T11:39:17.264Z,68.0
2018-03-16T11:40:16.536Z,68.0
2018-03-16T11:41:16.612Z,69.0
2018-03-16T11:42:16.886Z,69.0
2018-03-16T11:43:17.159Z,70.0
2018-03-16T11:44:16.446Z,70.0
2018-03-16T11:45:16.728Z,70.0
2018-03-16T11:46:17.004Z,70.0
2018-03-16T11:47:16.272Z,71.0
2018-03-16T11:48:16.549Z,71.0
2018-03-16T11:49:16.827Z,71.0
2018-03-16T11:50:17.104Z,71.0
2018-03-16T11:51:17.143Z,71.0
2018-03-16T11:52:16.407Z,72.0
2018-03-16T11:53:16.676Z,72.0
2018-03-16T11:54:16.949Z,72.0
2018-03-16T11:55:17.213Z,72.0
2018-03-16T11:56:16.480Z,72.0
2018-03-16T11:57:16.755Z,73.0
2018-03-16T11:58:17.027Z,73.0
2018-03-16T11:59:16.308Z,73.0
2018-03-16T12:00:16.597Z,73.0
2018-03-16T12:01:16.651Z,73.0
2018-03-16T12:02:16.917Z,73.0
2018-03-16T12:03:17.190Z,74.0
2018-03-16T12:04:16.461Z,74.0
2018-03-16T12:05:16.818Z,74.0
2018-03-16T12:06:17.091Z,74.0
2018-03-16T12:07:16.356Z,75.0
2018-03-16T12:08:16.636Z,75.0
2018-03-16T12:09:16.908Z,75.0
2018-03-16T12:10:17.183Z,75.0
2018-03-16T12:11:17.246Z,75.0
2018-03-16T12:12:16.515Z,76.0
2018-03-16T12:13:16.782Z,76.0
2018-03-16T12:14:17.057Z,76.0
2018-03-16T12:15:16.331Z,77.0
2018-03-16T12:16:16.600Z,77.0
2018-03-16T12:17:16.874Z,77.0
2018-03-16T12:18:17.410Z,78.0
2018-03-16T12:19:16.692Z,78.0
2018-03-16T12:20:16.982Z,78.0
2018-03-16T12:21:17.032Z,78.0
2018-03-16T12:22:16.311Z,79.0
2018-03-16T12:23:16.579Z,79.0
2018-03-16T12:24:16.845Z,79.0
2018-03-16T12:25:17.114Z,79.0
2018-03-16T12:26:16.393Z,79.0
2018-03-16T12:27:16.667Z,79.0
2018-03-16T12:28:16.935Z,79.0
2018-03-16T12:29:17.202Z,79.0
2018-03-16T12:30:16.478Z,79.0
2018-03-16T12:31:16.529Z,79.0
2018-03-16T12:32:16.797Z,79.0
2018-03-16T12:33:17.241Z,78.0
2018-03-16T12:34:16.518Z,78.0
2018-03-16T12:35:16.797Z,78.0
2018-03-16T12:36:17.076Z,78.0
2018-03-16T12:37:16.356Z,78.0
2018-03-16T12:38:17.016Z,78.0
2018-03-16T12:39:16.294Z,78.0
2018-03-16T12:40:16.558Z,78.0
2018-03-16T12:41:16.608Z,78.0
2018-03-16T12:42:16.875Z,78.0
2018-03-16T12:43:17.403Z,78.0
2018-03-16T12:44:16.675Z,78.0
2018-03-16T12:45:16.961Z,78.0
2018-03-16T12:46:17.231Z,78.0
2018-03-16T12:47:16.506Z,78.0
2018-03-16T12:48:16.784Z,78.0
2018-03-16T12:49:17.057Z,78.0
2018-03-16T12:50:16.341Z,77.0
2018-03-16T12:51:16.373Z,77.0
2018-03-16T12:52:16.655Z,77.0
2018-03-16T12:53:16.930Z,77.0
2018-03-16T12:54:17.206Z,77.0
2018-03-16T12:55:16.470Z,77.0
2018-03-16T12:56:16.748Z,77.0
2018-03-16T12:57:17.011Z,77.0
2018-03-16T12:58:16.288Z,77.0
2018-03-16T12:59:16.576Z,76.0
2018-03-16T13:00:16.856Z,76.0
2018-03-16T13:01:16.912Z,76.0
2018-03-16T13:02:17.183Z,76.0
2018-03-16T13:03:16.452Z,76.0
2018-03-16T13:04:16.733Z,76.0
2018-03-16T13:05:17.013Z,76.0
2018-03-16T13:06:16.291Z,76.0
2018-03-16T13:07:16.572Z,76.0
2018-03-16T13:08:16.901Z,76.0
2018-03-16T13:09:17.184Z,75.0
2018-03-16T13:10:16.454Z,75.0
2018-03-16T13:11:16.522Z,75.0
2018-03-16T13:12:16.795Z,75.0
2018-03-16T13:13:17.058Z,75.0
2018-03-16T13:14:16.343Z,75.0
2018-03-16T13:15:16.623Z,75.0
2018-03-16T13:16:16.893Z,74.0
2018-03-16T13:17:17.173Z,74.0
2018-03-16T13:18:16.436Z,74.0